Terminal Aerodrome Forecast
Issued by NWS

Home | Current Version | Previous Version | Text Only | Print | Product List | Glossary On
Versions: 1 2 3 4 5 6 7 8 9 10 11 12 13
000
FTUS41 KBTV 230708 AAA
TAFPBG
TAF AMD
KPBG 230708Z 2307/2406 VRB03KT 4SM -SHRA BR SCT025 BKN035
      TEMPO 2307/2310 2SM TSRA BR OVC040CB
     FM231400 17008G15KT P6SM VCSH OVC050
     FM240000 20006KT P6SM VCSH OVC030=

USA.gov is the U.S. government's official web portal to all federal, state and local government web resources and services.